Time,TemperatureF,DewpointF,PressureIn,WindDirection,WindDirectionDegrees,WindSpeedMPH,WindSpeedGustMPH,Humidity,HourlyPrecipIn,Conditions,Clouds,dailyrainin,SoftwareType,DateUTC
2013-05-11 00:00:00,63.2,52.5,29.85,ENE,67,0.0,2.0,68,0.00,,,-99.99,WeatherLink 5.5,2013-05-11 04:00:00,
2013-05-11 00:05:00,63.2,52.1,29.85,North,-999,0.0,0.0,67,0.00,,,-99.99,WeatherLink 5.5,2013-05-11 04:05:00,
2013-05-11 00:10:00,63.2,51.6,29.85,ESE,112,0.0,4.0,66,0.00,,,-99.99,WeatherLink 5.5,2013-05-11 04:10:00,
2013-05-11 00:15:00,63.2,51.6,29.85,ESE,112,0.0,4.0,66,0.00,,,-99.99,WeatherLink 5.5,2013-05-11 04:15:00,
2013-05-11 00:20:00,63.6,50.8,29.85,North,-999,0.0,0.0,63,0.00,,,-99.99,WeatherLink 5.5,2013-05-11 04:20:00,
2013-05-11 00:25:00,63.6,50.8,29.85,ESE,112,0.0,1.0,63,0.00,,,-99.99,WeatherLink 5.5,2013-05-11 04:25:00,
2013-05-11 00:30:00,63.6,50.8,29.85,ESE,112,0.0,1.0,63,0.00,,,-99.99,WeatherLink 5.5,2013-05-11 04:30:00,
2013-05-11 00:35:00,63.6,50.3,29.85,ESE,112,0.0,4.0,62,0.00,,,-99.99,WeatherLink 5.5,2013-05-11 04:35:00,
2013-05-11 00:40:00,63.6,50.3,29.85,ESE,112,0.0,2.0,62,0.00,,,-99.99,WeatherLink 5.5,2013-05-11 04:40:00,
2013-05-11 00:45:00,63.6,50.3,29.85,ESE,112,0.0,2.0,62,0.00,,,-99.99,WeatherLink 5.5,2013-05-11 04:45:00,
2013-05-11 00:50:00,63.7,50.4,29.84,North,-999,0.0,0.0,62,0.00,,,-99.99,WeatherLink 5.5,2013-05-11 04:50:00,
2013-05-11 00:55:00,63.7,50.4,29.84,ESE,112,0.0,2.0,62,0.00,,,-99.99,WeatherLink 5.5,2013-05-11 04:55:00,
2013-05-11 01:00:00,63.7,50.4,29.84,ESE,112,0.0,2.0,62,0.00,,,-99.99,WeatherLink 5.5,2013-05-11 05:00:00,
2013-05-11 01:05:00,63.6,50.3,29.84,ESE,112,0.0,1.0,62,0.00,,,-99.99,WeatherLink 5.5,2013-05-11 05:05:00,
2013-05-11 01:10:00,63.6,50.3,29.84,ESE,112,0.0,1.0,62,0.00,,,-99.99,WeatherLink 5.5,2013-05-11 05:10:00,
2013-05-11 01:15:00,63.6,50.3,29.84,ESE,112,0.0,1.0,62,0.00,,,-99.99,WeatherLink 5.5,2013-05-11 05:15:00,
2013-05-11 01:20:00,63.6,50.8,29.84,ESE,112,0.0,1.0,63,0.00,,,-99.99,WeatherLink 5.5,2013-05-11 05:20:00,
2013-05-11 01:25:00,63.4,50.6,29.84,ESE,112,0.0,1.0,63,0.00,,,-99.99,WeatherLink 5.5,2013-05-11 05:25:00,
2013-05-11 01:30:00,63.4,50.6,29.84,ESE,112,0.0,1.0,63,0.00,,,-99.99,WeatherLink 5.5,2013-05-11 05:30:00,
2013-05-11 01:35:00,63.2,50.8,29.84,ESE,112,0.0,2.0,64,0.00,,,-99.99,WeatherLink 5.5,2013-05-11 05:35:00,
2013-05-11 01:40:00,63.2,50.8,29.84,SE,135,0.0,1.0,64,0.00,,,-99.99,WeatherLink 5.5,2013-05-11 05:40:00,
2013-05-11 01:45:00,63.2,50.8,29.84,SE,135,0.0,1.0,64,0.00,,,-99.99,WeatherLink 5.5,2013-05-11 05:45:00,
2013-05-11 01:50:00,63.2,50.4,29.83,SE,135,0.0,4.0,63,0.00,,,-99.99,WeatherLink 5.5,2013-05-11 05:50:00,
2013-05-11 01:55:00,63.4,50.6,29.83,SE,135,0.0,2.0,63,0.00,,,-99.99,WeatherLink 5.5,2013-05-11 05:55:00,
2013-05-11 02:00:00,63.4,50.6,29.83,SE,135,0.0,2.0,63,0.00,,,-99.99,WeatherLink 5.5,2013-05-11 06:00:00,
2013-05-11 02:05:00,63.4,50.6,29.82,ESE,112,0.0,2.0,63,0.00,,,-99.99,WeatherLink 5.5,2013-05-11 06:05:00,
2013-05-11 02:10:00,63.4,50.6,29.82,North,-999,0.0,0.0,63,0.00,,,-99.99,WeatherLink 5.5,2013-05-11 06:10:00,
2013-05-11 02:15:00,63.4,50.6,29.82,North,-999,0.0,0.0,63,0.00,,,-99.99,WeatherLink 5.5,2013-05-11 06:15:00,
2013-05-11 02:20:00,63.4,50.6,29.82,ESE,112,0.0,2.0,63,0.00,,,-99.99,WeatherLink 5.5,2013-05-11 06:20:00,
2013-05-11 02:25:00,63.2,50.4,29.82,ESE,112,0.0,4.0,63,0.00,,,-99.99,WeatherLink 5.5,2013-05-11 06:25:00,
2013-05-11 02:30:00,63.2,50.4,29.82,ESE,112,0.0,4.0,63,0.00,,,-99.99,WeatherLink 5.5,2013-05-11 06:30:00,
2013-05-11 02:35:00,63.1,50.7,29.81,North,-999,0.0,0.0,64,0.00,,,-99.99,WeatherLink 5.5,2013-05-11 06:35:00,
2013-05-11 02:40:00,62.9,50.5,29.81,ESE,112,0.0,4.0,64,0.00,,,-99.99,WeatherLink 5.5,2013-05-11 06:40:00,
2013-05-11 02:45:00,62.9,50.5,29.81,ESE,112,0.0,4.0,64,0.00,,,-99.99,WeatherLink 5.5,2013-05-11 06:45:00,
2013-05-11 02:50:00,62.8,50.4,29.81,ESE,112,0.0,2.0,64,0.00,,,-99.99,WeatherLink 5.5,2013-05-11 06:50:00,
2013-05-11 02:55:00,62.8,50.4,29.81,ESE,112,0.0,6.0,64,0.00,,,-99.99,WeatherLink 5.5,2013-05-11 06:55:00,
2013-05-11 03:00:00,62.8,50.4,29.81,ESE,112,0.0,6.0,64,0.00,,,-99.99,WeatherLink 5.5,2013-05-11 07:00:00,
2013-05-11 03:05:00,62.8,50.4,29.80,ESE,112,0.0,4.0,64,0.00,,,-99.99,WeatherLink 5.5,2013-05-11 07:05:00,
2013-05-11 03:10:00,62.6,50.2,29.80,ESE,112,0.0,2.0,64,0.00,,,-99.99,WeatherLink 5.5,2013-05-11 07:10:00,
2013-05-11 03:15:00,62.6,50.2,29.80,ESE,112,0.0,2.0,64,0.00,,,-99.99,WeatherLink 5.5,2013-05-11 07:15:00,
2013-05-11 03:20:00,62.4,50.1,29.80,North,-999,0.0,0.0,64,0.00,,,-99.99,WeatherLink 5.5,2013-05-11 07:20:00,
2013-05-11 03:25:00,62.3,50.0,29.80,ESE,112,0.0,1.0,64,0.00,,,-99.99,WeatherLink 5.5,2013-05-11 07:25:00,
2013-05-11 03:30:00,62.3,50.0,29.80,ESE,112,0.0,1.0,64,0.00,,,-99.99,WeatherLink 5.5,2013-05-11 07:30:00,
2013-05-11 03:35:00,62.1,50.2,29.79,North,-999,0.0,0.0,65,0.00,,,-99.99,WeatherLink 5.5,2013-05-11 07:35:00,
2013-05-11 03:40:00,62.0,50.1,29.79,SE,135,1.0,6.0,65,0.00,,,-99.99,WeatherLink 5.5,2013-05-11 07:40:00,
2013-05-11 03:45:00,62.0,50.1,29.79,SE,135,1.0,6.0,65,0.00,,,-99.99,WeatherLink 5.5,2013-05-11 07:45:00,
2013-05-11 03:50:00,61.8,49.9,29.78,ESE,112,0.0,2.0,65,0.00,,,-99.99,WeatherLink 5.5,2013-05-11 07:50:00,
2013-05-11 03:55:00,61.7,49.8,29.78,East,90,0.0,2.0,65,0.00,,,-99.99,WeatherLink 5.5,2013-05-11 07:55:00,
2013-05-11 04:00:00,61.7,49.8,29.78,East,90,0.0,2.0,65,0.00,,,-99.99,WeatherLink 5.5,2013-05-11 08:00:00,
2013-05-11 04:05:00,61.2,49.7,29.77,North,-999,0.0,0.0,66,0.00,,,-99.99,WeatherLink 5.5,2013-05-11 08:05:00,
2013-05-11 04:10:00,61.0,50.0,29.77,ESE,112,0.0,6.0,67,0.00,,,-99.99,WeatherLink 5.5,2013-05-11 08:10:00,
2013-05-11 04:15:00,61.0,50.0,29.77,ESE,112,0.0,6.0,67,0.00,,,-99.99,WeatherLink 5.5,2013-05-11 08:15:00,
2013-05-11 04:20:00,60.9,49.9,29.77,North,-999,0.0,0.0,67,0.00,,,-99.99,WeatherLink 5.5,2013-05-11 08:20:00,
2013-05-11 04:25:00,60.7,50.1,29.77,ESE,112,0.0,1.0,68,0.00,,,-99.99,WeatherLink 5.5,2013-05-11 08:25:00,
2013-05-11 04:30:00,60.7,50.1,29.77,ESE,112,0.0,1.0,68,0.00,,,-99.99,WeatherLink 5.5,2013-05-11 08:30:00,
2013-05-11 04:35:00,60.7,50.1,29.76,ESE,112,0.0,2.0,68,0.00,,,-99.99,WeatherLink 5.5,2013-05-11 08:35:00,
2013-05-11 04:40:00,60.6,50.0,29.76,ESE,112,0.0,1.0,68,0.00,,,-99.99,WeatherLink 5.5,2013-05-11 08:40:00,
2013-05-11 04:45:00,60.6,50.0,29.76,ESE,112,0.0,1.0,68,0.00,,,-99.99,WeatherLink 5.5,2013-05-11 08:45:00,
2013-05-11 04:50:00,60.6,50.0,29.76,ESE,112,1.0,7.0,68,0.00,,,-99.99,WeatherLink 5.5,2013-05-11 08:50:00,
2013-05-11 04:55:00,60.6,50.0,29.76,SE,135,1.0,7.0,68,0.00,,,-99.99,WeatherLink 5.5,2013-05-11 08:55:00,
2013-05-11 05:00:00,60.6,50.0,29.76,SE,135,1.0,7.0,68,0.00,,,-99.99,WeatherLink 5.5,2013-05-11 09:00:00,
2013-05-11 05:05:00,60.6,50.0,29.76,SE,135,1.0,7.0,68,0.00,,,-99.99,WeatherLink 5.5,2013-05-11 09:05:00,
2013-05-11 05:10:00,60.4,49.8,29.76,SE,135,1.0,6.0,68,0.00,,,-99.99,WeatherLink 5.5,2013-05-11 09:10:00,
2013-05-11 05:15:00,60.4,49.8,29.76,SE,135,1.0,6.0,68,0.00,,,-99.99,WeatherLink 5.5,2013-05-11 09:15:00,
2013-05-11 05:20:00,60.6,50.0,29.77,ESE,112,2.0,8.0,68,0.00,,,-99.99,WeatherLink 5.5,2013-05-11 09:20:00,
2013-05-11 05:25:00,60.6,50.0,29.77,ESE,112,1.0,9.0,68,0.00,,,-99.99,WeatherLink 5.5,2013-05-11 09:25:00,
2013-05-11 05:30:00,60.6,50.0,29.77,ESE,112,1.0,9.0,68,0.00,,,-99.99,WeatherLink 5.5,2013-05-11 09:30:00,
2013-05-11 05:35:00,60.6,50.4,29.77,ESE,112,0.0,2.0,69,0.00,,,-99.99,WeatherLink 5.5,2013-05-11 09:35:00,
2013-05-11 05:40:00,60.6,50.8,29.77,ESE,112,0.0,4.0,70,0.00,,,-99.99,WeatherLink 5.5,2013-05-11 09:40:00,
2013-05-11 05:45:00,60.6,50.8,29.77,ESE,112,0.0,4.0,70,0.00,,,-99.99,WeatherLink 5.5,2013-05-11 09:45:00,
2013-05-11 05:50:00,60.2,51.1,29.75,North,-999,0.0,0.0,72,0.01,,,-99.99,WeatherLink 5.5,2013-05-11 09:50:00,
2013-05-11 05:55:00,59.8,51.5,29.75,ESE,112,0.0,1.0,74,0.02,,,-99.99,WeatherLink 5.5,2013-05-11 09:55:00,
2013-05-11 06:00:00,59.8,51.5,29.75,ESE,112,0.0,1.0,74,0.02,,,-99.99,WeatherLink 5.5,2013-05-11 10:00:00,
2013-05-11 06:05:00,59.0,52.1,29.75,ESE,112,0.0,1.0,78,0.02,,,-99.99,WeatherLink 5.5,2013-05-11 10:05:00,
2013-05-11 06:10:00,58.9,52.1,29.75,ESE,112,0.0,1.0,78,0.02,,,-99.99,WeatherLink 5.5,2013-05-11 10:10:00,
2013-05-11 06:15:00,58.9,52.1,29.75,ESE,112,0.0,1.0,78,0.02,,,-99.99,WeatherLink 5.5,2013-05-11 10:15:00,
2013-05-11 06:20:00,58.6,52.1,29.75,ESE,112,0.0,2.0,79,0.02,,,-99.99,WeatherLink 5.5,2013-05-11 10:20:00,
2013-05-11 06:25:00,58.6,52.4,29.75,North,-999,0.0,0.0,80,0.02,,,-99.99,WeatherLink 5.5,2013-05-11 10:25:00,
2013-05-11 06:30:00,58.6,52.4,29.75,North,-999,0.0,0.0,80,0.02,,,-99.99,WeatherLink 5.5,2013-05-11 10:30:00,
2013-05-11 06:35:00,58.4,52.3,29.75,ESE,112,0.0,1.0,80,0.03,,,-99.99,WeatherLink 5.5,2013-05-11 10:35:00,
2013-05-11 06:40:00,58.4,52.6,29.75,ESE,112,1.0,7.0,81,0.03,,,-99.99,WeatherLink 5.5,2013-05-11 10:40:00,
2013-05-11 06:45:00,58.4,52.6,29.75,ESE,112,1.0,7.0,81,0.03,,,-99.99,WeatherLink 5.5,2013-05-11 10:45:00,
2013-05-11 06:50:00,58.4,52.6,29.76,ESE,112,2.0,7.0,81,0.02,,,-99.99,WeatherLink 5.5,2013-05-11 10:50:00,
2013-05-11 06:55:00,58.4,52.9,29.76,ESE,112,2.0,7.0,82,0.01,,,-99.99,WeatherLink 5.5,2013-05-11 10:55:00,
2013-05-11 07:00:00,58.4,52.9,29.76,ESE,112,2.0,7.0,82,0.01,,,-99.99,WeatherLink 5.5,2013-05-11 11:00:00,
2013-05-11 07:05:00,58.6,53.1,29.77,ENE,67,2.0,8.0,82,0.01,,,-99.99,WeatherLink 5.5,2013-05-11 11:05:00,
2013-05-11 07:10:00,58.4,52.9,29.77,ESE,112,2.0,7.0,82,0.01,,,-99.99,WeatherLink 5.5,2013-05-11 11:10:00,
2013-05-11 07:15:00,58.4,52.9,29.77,ESE,112,2.0,7.0,82,0.01,,,-99.99,WeatherLink 5.5,2013-05-11 11:15:00,
2013-05-11 07:20:00,58.6,53.1,29.76,SE,135,1.0,7.0,82,0.01,,,-99.99,WeatherLink 5.5,2013-05-11 11:20:00,
2013-05-11 07:25:00,58.6,53.1,29.76,ESE,112,1.0,7.0,82,0.01,,,-99.99,WeatherLink 5.5,2013-05-11 11:25:00,
2013-05-11 07:30:00,58.6,53.1,29.76,ESE,112,1.0,7.0,82,0.01,,,-99.99,WeatherLink 5.5,2013-05-11 11:30:00,
2013-05-11 07:35:00,58.7,53.5,29.76,ESE,112,1.0,6.0,83,0.00,,,-99.99,WeatherLink 5.5,2013-05-11 11:35:00,
2013-05-11 07:40:00,58.7,53.5,29.76,ESE,112,2.0,6.0,83,0.00,,,-99.99,WeatherLink 5.5,2013-05-11 11:40:00,
2013-05-11 07:45:00,58.7,53.5,29.76,ESE,112,2.0,6.0,83,0.00,,,-99.99,WeatherLink 5.5,2013-05-11 11:45:00,
2013-05-11 07:50:00,59.0,53.8,29.76,ESE,112,1.0,6.0,83,0.00,,,-99.99,WeatherLink 5.5,2013-05-11 11:50:00,
2013-05-11 07:55:00,59.2,54.4,29.76,SE,135,1.0,7.0,84,0.00,,,-99.99,WeatherLink 5.5,2013-05-11 11:55:00,
2013-05-11 08:00:00,59.2,54.4,29.76,SE,135,1.0,7.0,84,0.00,,,-99.99,WeatherLink 5.5,2013-05-11 12:00:00,
2013-05-11 08:05:00,59.6,54.8,29.75,ESE,112,2.0,6.0,84,0.00,,,-99.99,WeatherLink 5.5,2013-05-11 12:05:00,
2013-05-11 08:10:00,59.8,55.0,29.75,SE,135,2.0,8.0,84,0.00,,,-99.99,WeatherLink 5.5,2013-05-11 12:10:00,
2013-05-11 08:15:00,59.8,55.0,29.75,SE,135,2.0,8.0,84,0.00,,,-99.99,WeatherLink 5.5,2013-05-11 12:15:00,
2013-05-11 08:20:00,60.2,55.3,29.75,SE,135,5.0,15.0,84,0.00,,,-99.99,WeatherLink 5.5,2013-05-11 12:20:00,
2013-05-11 08:25:00,60.4,55.5,29.75,ESE,112,5.0,13.0,84,0.00,,,-99.99,WeatherLink 5.5,2013-05-11 12:25:00,
2013-05-11 08:30:00,60.4,55.5,29.75,ESE,112,5.0,13.0,84,0.00,,,-99.99,WeatherLink 5.5,2013-05-11 12:30:00,
2013-05-11 08:35:00,60.9,55.7,29.75,SE,135,1.0,8.0,83,0.00,,,-99.99,WeatherLink 5.5,2013-05-11 12:35:00,
2013-05-11 08:40:00,61.0,55.8,29.75,ESE,112,2.0,8.0,83,0.00,,,-99.99,WeatherLink 5.5,2013-05-11 12:40:00,
2013-05-11 08:45:00,61.0,55.8,29.75,ESE,112,2.0,8.0,83,0.00,,,-99.99,WeatherLink 5.5,2013-05-11 12:45:00,
2013-05-11 08:50:00,61.3,55.8,29.75,South,180,0.0,4.0,82,0.00,,,-99.99,WeatherLink 5.5,2013-05-11 12:50:00,
2013-05-11 08:55:00,61.5,56.0,29.75,ESE,112,2.0,8.0,82,0.00,,,-99.99,WeatherLink 5.5,2013-05-11 12:55:00,
2013-05-11 09:00:00,61.5,56.0,29.75,ESE,112,2.0,8.0,82,0.00,,,-99.99,WeatherLink 5.5,2013-05-11 13:00:00,
2013-05-11 09:05:00,61.8,56.2,29.74,ESE,112,1.0,6.0,82,0.00,,,-99.99,WeatherLink 5.5,2013-05-11 13:05:00,
2013-05-11 09:10:00,62.1,56.2,29.74,ESE,112,1.0,6.0,81,0.00,,,-99.99,WeatherLink 5.5,2013-05-11 13:10:00,
2013-05-11 09:15:00,62.1,56.2,29.74,ESE,112,1.0,6.0,81,0.00,,,-99.99,WeatherLink 5.5,2013-05-11 13:15:00,
2013-05-11 09:20:00,62.4,55.8,29.73,East,90,5.0,14.0,79,0.00,,,-99.99,WeatherLink 5.5,2013-05-11 13:20:00,
2013-05-11 09:25:00,62.8,55.8,29.73,ESE,112,4.0,9.0,78,0.00,,,-99.99,WeatherLink 5.5,2013-05-11 13:25:00,
2013-05-11 09:30:00,62.8,55.8,29.73,ESE,112,4.0,9.0,78,0.00,,,-99.99,WeatherLink 5.5,2013-05-11 13:30:00,
2013-05-11 09:35:00,63.7,56.0,29.73,SE,135,2.0,8.0,76,0.00,,,-99.99,WeatherLink 5.5,2013-05-11 13:35:00,
2013-05-11 09:40:00,64.2,55.7,29.73,East,90,3.0,8.0,74,0.00,,,-99.99,WeatherLink 5.5,2013-05-11 13:40:00,
2013-05-11 09:45:00,64.2,55.7,29.73,East,90,3.0,8.0,74,0.00,,,-99.99,WeatherLink 5.5,2013-05-11 13:45:00,
2013-05-11 09:50:00,64.9,56.0,29.73,SE,135,4.0,9.0,73,0.00,,,-99.99,WeatherLink 5.5,2013-05-11 13:50:00,
2013-05-11 09:55:00,65.0,55.4,29.73,SE,135,1.0,8.0,71,0.00,,,-99.99,WeatherLink 5.5,2013-05-11 13:55:00,
2013-05-11 10:00:00,65.0,55.4,29.73,SE,135,1.0,8.0,71,0.00,,,-99.99,WeatherLink 5.5,2013-05-11 14:00:00,
2013-05-11 10:05:00,65.7,56.0,29.73,SSE,157,3.0,9.0,71,0.00,,,-99.99,WeatherLink 5.5,2013-05-11 14:05:00,
2013-05-11 10:10:00,65.7,55.2,29.73,SE,135,6.0,14.0,69,0.00,,,-99.99,WeatherLink 5.5,2013-05-11 14:10:00,
2013-05-11 10:15:00,65.7,55.2,29.73,SE,135,6.0,14.0,69,0.00,,,-99.99,WeatherLink 5.5,2013-05-11 14:15:00,
2013-05-11 10:20:00,65.5,55.1,29.73,South,180,5.0,16.0,69,0.00,,,-99.99,WeatherLink 5.5,2013-05-11 14:20:00,
2013-05-11 10:25:00,65.7,54.8,29.73,ESE,112,4.0,14.0,68,0.00,,,-99.99,WeatherLink 5.5,2013-05-11 14:25:00,
2013-05-11 10:30:00,65.7,54.8,29.73,ESE,112,4.0,14.0,68,0.00,,,-99.99,WeatherLink 5.5,2013-05-11 14:30:00,
2013-05-11 10:35:00,65.7,54.8,29.73,SE,135,1.0,11.0,68,0.00,,,-99.99,WeatherLink 5.5,2013-05-11 14:35:00,
2013-05-11 10:40:00,65.5,55.1,29.73,East,90,2.0,14.0,69,0.00,,,-99.99,WeatherLink 5.5,2013-05-11 14:40:00,
2013-05-11 10:45:00,65.5,55.1,29.73,East,90,2.0,14.0,69,0.00,,,-99.99,WeatherLink 5.5,2013-05-11 14:45:00,
2013-05-11 10:50:00,65.7,55.2,29.72,SSE,157,4.0,13.0,69,0.00,,,-99.99,WeatherLink 5.5,2013-05-11 14:50:00,
2013-05-11 10:55:00,65.8,54.9,29.72,South,180,2.0,7.0,68,0.00,,,-99.99,WeatherLink 5.5,2013-05-11 14:55:00,
2013-05-11 11:00:00,65.8,54.9,29.72,South,180,2.0,7.0,68,0.00,,,-99.99,WeatherLink 5.5,2013-05-11 15:00:00,
2013-05-11 11:05:00,65.8,54.9,29.73,SE,135,4.0,14.0,68,0.00,,,-99.99,WeatherLink 5.5,2013-05-11 15:05:00,
2013-05-11 11:10:00,65.8,54.9,29.73,ESE,112,3.0,11.0,68,0.00,,,-99.99,WeatherLink 5.5,2013-05-11 15:10:00,
2013-05-11 11:15:00,65.8,54.9,29.73,ESE,112,3.0,11.0,68,0.00,,,-99.99,WeatherLink 5.5,2013-05-11 15:15:00,
2013-05-11 11:20:00,65.8,55.3,29.73,SE,135,2.0,11.0,69,0.00,,,-99.99,WeatherLink 5.5,2013-05-11 15:20:00,
2013-05-11 11:25:00,65.7,55.2,29.73,SE,135,3.0,11.0,69,0.00,,,-99.99,WeatherLink 5.5,2013-05-11 15:25:00,
2013-05-11 11:30:00,65.7,55.2,29.73,SE,135,3.0,11.0,69,0.00,,,-99.99,WeatherLink 5.5,2013-05-11 15:30:00,
2013-05-11 11:35:00,65.8,55.3,29.73,SSE,157,2.0,10.0,69,0.00,,,-99.99,WeatherLink 5.5,2013-05-11 15:35:00,
2013-05-11 11:40:00,66.0,55.1,29.73,SE,135,4.0,10.0,68,0.00,,,-99.99,WeatherLink 5.5,2013-05-11 15:40:00,
2013-05-11 11:45:00,66.0,55.1,29.73,SE,135,4.0,10.0,68,0.00,,,-99.99,WeatherLink 5.5,2013-05-11 15:45:00,
2013-05-11 11:50:00,66.1,54.8,29.73,South,180,4.0,11.0,67,0.00,,,-99.99,WeatherLink 5.5,2013-05-11 15:50:00,
2013-05-11 11:55:00,66.3,55.4,29.73,SSE,157,1.0,7.0,68,0.00,,,-99.99,WeatherLink 5.5,2013-05-11 15:55:00,
2013-05-11 12:00:00,66.3,55.4,29.73,SSE,157,1.0,7.0,68,0.00,,,-99.99,WeatherLink 5.5,2013-05-11 16:00:00,
2013-05-11 12:05:00,66.5,55.2,29.72,SE,135,3.0,8.0,67,0.00,,,-99.99,WeatherLink 5.5,2013-05-11 16:05:00,
2013-05-11 12:10:00,66.5,55.2,29.72,SSE,157,2.0,11.0,67,0.00,,,-99.99,WeatherLink 5.5,2013-05-11 16:10:00,
2013-05-11 12:15:00,66.5,55.2,29.72,SSE,157,2.0,11.0,67,0.00,,,-99.99,WeatherLink 5.5,2013-05-11 16:15:00,
2013-05-11 12:20:00,67.3,56.0,29.72,East,90,2.0,10.0,67,0.01,,,-99.99,WeatherLink 5.5,2013-05-11 16:20:00,
2013-05-11 12:25:00,67.6,55.4,29.72,East,90,3.0,10.0,65,0.01,,,-99.99,WeatherLink 5.5,2013-05-11 16:25:00,
2013-05-11 12:30:00,67.6,55.4,29.72,East,90,3.0,10.0,65,0.01,,,-99.99,WeatherLink 5.5,2013-05-11 16:30:00,
2013-05-11 12:35:00,68.1,56.3,29.71,South,180,1.0,9.0,66,0.01,,,-99.99,WeatherLink 5.5,2013-05-11 16:35:00,
2013-05-11 12:40:00,68.1,56.7,29.71,South,180,1.0,8.0,67,0.01,,,-99.99,WeatherLink 5.5,2013-05-11 16:40:00,
2013-05-11 12:45:00,68.1,56.7,29.71,South,180,1.0,8.0,67,0.01,,,-99.99,WeatherLink 5.5,2013-05-11 16:45:00,
2013-05-11 12:50:00,68.5,56.3,29.70,NE,45,5.0,14.0,65,0.01,,,-99.99,WeatherLink 5.5,2013-05-11 16:50:00,
2013-05-11 12:55:00,68.6,57.2,29.70,SE,135,1.0,7.0,67,0.01,,,-99.99,WeatherLink 5.5,2013-05-11 16:55:00,
2013-05-11 13:00:00,68.6,57.2,29.70,SE,135,1.0,7.0,67,0.01,,,-99.99,WeatherLink 5.5,2013-05-11 17:00:00,
2013-05-11 13:05:00,68.5,56.7,29.70,ESE,112,2.0,11.0,66,0.01,,,-99.99,WeatherLink 5.5,2013-05-11 17:05:00,
2013-05-11 13:10:00,68.3,56.5,29.70,ESE,112,4.0,17.0,66,0.01,,,-99.99,WeatherLink 5.5,2013-05-11 17:10:00,
2013-05-11 13:15:00,68.3,56.5,29.70,ESE,112,4.0,17.0,66,0.01,,,-99.99,WeatherLink 5.5,2013-05-11 17:15:00,
2013-05-11 13:20:00,68.5,56.7,29.70,SE,135,2.0,7.0,66,0.00,,,-99.99,WeatherLink 5.5,2013-05-11 17:20:00,
2013-05-11 13:25:00,68.6,56.4,29.70,ESE,112,1.0,8.0,65,0.00,,,-99.99,WeatherLink 5.5,2013-05-11 17:25:00,
2013-05-11 13:30:00,68.6,56.4,29.70,ESE,112,1.0,8.0,65,0.00,,,-99.99,WeatherLink 5.5,2013-05-11 17:30:00,
2013-05-11 13:35:00,69.1,56.4,29.70,NE,45,2.0,10.0,64,0.00,,,-99.99,WeatherLink 5.5,2013-05-11 17:35:00,
2013-05-11 13:40:00,69.3,56.6,29.70,ESE,112,3.0,14.0,64,0.00,,,-99.99,WeatherLink 5.5,2013-05-11 17:40:00,
2013-05-11 13:45:00,69.3,56.6,29.70,ESE,112,3.0,14.0,64,0.00,,,-99.99,WeatherLink 5.5,2013-05-11 17:45:00,
2013-05-11 13:50:00,69.1,56.4,29.69,ESE,112,5.0,11.0,64,0.00,,,-99.99,WeatherLink 5.5,2013-05-11 17:50:00,
2013-05-11 13:55:00,69.0,55.9,29.69,ESE,112,7.0,17.0,63,0.00,,,-99.99,WeatherLink 5.5,2013-05-11 17:55:00,
2013-05-11 14:00:00,69.0,55.9,29.69,ESE,112,7.0,17.0,63,0.00,,,-99.99,WeatherLink 5.5,2013-05-11 18:00:00,
2013-05-11 14:05:00,68.8,55.7,29.69,SE,135,7.0,15.0,63,0.00,,,-99.99,WeatherLink 5.5,2013-05-11 18:05:00,
2013-05-11 14:10:00,69.0,55.9,29.69,SE,135,5.0,15.0,63,0.00,,,-99.99,WeatherLink 5.5,2013-05-11 18:10:00,
2013-05-11 14:15:00,69.0,55.9,29.69,SE,135,5.0,15.0,63,0.00,,,-99.99,WeatherLink 5.5,2013-05-11 18:15:00,
2013-05-11 14:20:00,68.6,55.9,29.69,SSE,157,5.0,15.0,64,0.00,,,-99.99,WeatherLink 5.5,2013-05-11 18:20:00,
2013-05-11 14:25:00,68.6,55.9,29.69,SSE,157,3.0,9.0,64,0.00,,,-99.99,WeatherLink 5.5,2013-05-11 18:25:00,
2013-05-11 14:30:00,68.6,55.9,29.69,SSE,157,3.0,9.0,64,0.00,,,-99.99,WeatherLink 5.5,2013-05-11 18:30:00,
2013-05-11 14:35:00,68.6,55.9,29.68,East,90,4.0,13.0,64,0.00,,,-99.99,WeatherLink 5.5,2013-05-11 18:35:00,
2013-05-11 14:40:00,68.5,56.3,29.68,SE,135,4.0,23.0,65,0.00,,,-99.99,WeatherLink 5.5,2013-05-11 18:40:00,
2013-05-11 14:45:00,68.5,56.3,29.68,SE,135,4.0,23.0,65,0.00,,,-99.99,WeatherLink 5.5,2013-05-11 18:45:00,
2013-05-11 14:50:00,67.6,56.2,29.68,East,90,4.0,17.0,67,0.00,,,-99.99,WeatherLink 5.5,2013-05-11 18:50:00,
2013-05-11 14:55:00,67.6,56.2,29.68,ESE,112,4.0,13.0,67,0.00,,,-99.99,WeatherLink 5.5,2013-05-11 18:55:00,
2013-05-11 15:00:00,67.6,56.2,29.68,ESE,112,4.0,13.0,67,0.00,,,-99.99,WeatherLink 5.5,2013-05-11 19:00:00,
2013-05-11 15:05:00,67.6,56.2,29.67,SE,135,4.0,10.0,67,0.00,,,-99.99,WeatherLink 5.5,2013-05-11 19:05:00,
2013-05-11 15:10:00,67.8,56.4,29.67,East,90,4.0,18.0,67,0.00,,,-99.99,WeatherLink 5.5,2013-05-11 19:10:00,
2013-05-11 15:15:00,67.8,56.4,29.67,East,90,4.0,18.0,67,0.00,,,-99.99,WeatherLink 5.5,2013-05-11 19:15:00,
2013-05-11 15:20:00,68.1,55.9,29.67,North,-999,0.0,0.0,65,0.00,,,-99.99,WeatherLink 5.5,2013-05-11 19:20:00,
2013-05-11 15:25:00,68.3,56.1,29.67,North,-999,0.0,0.0,65,0.00,,,-99.99,WeatherLink 5.5,2013-05-11 19:25:00,
2013-05-11 15:30:00,68.3,56.1,29.67,North,-999,0.0,0.0,65,0.00,,,-99.99,WeatherLink 5.5,2013-05-11 19:30:00,
2013-05-11 15:35:00,68.0,55.8,29.67,North,-999,0.0,0.0,65,0.00,,,-99.99,WeatherLink 5.5,2013-05-11 19:35:00,
2013-05-11 15:40:00,67.6,55.4,29.67,North,-999,0.0,0.0,65,0.00,,,-99.99,WeatherLink 5.5,2013-05-11 19:40:00,
2013-05-11 15:45:00,67.6,55.4,29.67,North,-999,0.0,0.0,65,0.00,,,-99.99,WeatherLink 5.5,2013-05-11 19:45:00,
2013-05-11 15:50:00,67.5,55.7,29.67,North,-999,0.0,0.0,66,0.00,,,-99.99,WeatherLink 5.5,2013-05-11 19:50:00,
2013-05-11 15:55:00,67.3,55.5,29.67,North,-999,0.0,0.0,66,0.00,,,-99.99,WeatherLink 5.5,2013-05-11 19:55:00,
2013-05-11 16:00:00,67.3,55.5,29.67,North,-999,0.0,0.0,66,0.00,,,-99.99,WeatherLink 5.5,2013-05-11 20:00:00,
2013-05-11 16:05:00,67.0,55.3,29.67,North,-999,0.0,0.0,66,0.00,,,-99.99,WeatherLink 5.5,2013-05-11 20:05:00,
2013-05-11 16:10:00,66.8,55.5,29.67,North,-999,0.0,0.0,67,0.00,,,-99.99,WeatherLink 5.5,2013-05-11 20:10:00,
2013-05-11 16:15:00,66.8,55.5,29.67,North,-999,0.0,0.0,67,0.00,,,-99.99,WeatherLink 5.5,2013-05-11 20:15:00,
2013-05-11 16:20:00,66.8,55.5,29.67,North,-999,0.0,0.0,67,0.00,,,-99.99,WeatherLink 5.5,2013-05-11 20:20:00,
2013-05-11 16:25:00,66.8,55.5,29.67,North,-999,0.0,0.0,67,0.00,,,-99.99,WeatherLink 5.5,2013-05-11 20:25:00,
2013-05-11 16:30:00,66.8,55.5,29.67,North,-999,0.0,0.0,67,0.00,,,-99.99,WeatherLink 5.5,2013-05-11 20:30:00,
2013-05-11 16:35:00,66.6,55.3,29.67,North,-999,0.0,0.0,67,0.00,,,-99.99,WeatherLink 5.5,2013-05-11 20:35:00,
2013-05-11 16:40:00,66.5,55.2,29.67,North,-999,0.0,0.0,67,0.00,,,-99.99,WeatherLink 5.5,2013-05-11 20:40:00,
2013-05-11 16:45:00,66.5,55.2,29.67,North,-999,0.0,0.0,67,0.00,,,-99.99,WeatherLink 5.5,2013-05-11 20:45:00,
2013-05-11 16:50:00,66.3,55.4,29.67,North,-999,0.0,0.0,68,0.00,,,-99.99,WeatherLink 5.5,2013-05-11 20:50:00,
2013-05-11 16:55:00,66.3,55.4,29.67,North,-999,0.0,0.0,68,0.00,,,-99.99,WeatherLink 5.5,2013-05-11 20:55:00,
2013-05-11 17:00:00,66.3,55.4,29.67,North,-999,0.0,0.0,68,0.00,,,-99.99,WeatherLink 5.5,2013-05-11 21:00:00,
2013-05-11 17:05:00,66.3,55.0,29.67,North,-999,0.0,0.0,67,0.00,,,-99.99,WeatherLink 5.5,2013-05-11 21:05:00,
2013-05-11 17:10:00,66.1,55.2,29.67,North,-999,0.0,0.0,68,0.00,,,-99.99,WeatherLink 5.5,2013-05-11 21:10:00,
2013-05-11 17:15:00,66.1,55.2,29.67,North,-999,0.0,0.0,68,0.00,,,-99.99,WeatherLink 5.5,2013-05-11 21:15:00,
2013-05-11 17:20:00,66.1,55.2,29.67,North,-999,0.0,0.0,68,0.00,,,-99.99,WeatherLink 5.5,2013-05-11 21:20:00,
2013-05-11 17:25:00,66.1,55.2,29.67,North,-999,0.0,0.0,68,0.00,,,-99.99,WeatherLink 5.5,2013-05-11 21:25:00,
2013-05-11 17:30:00,66.1,55.2,29.67,North,-999,0.0,0.0,68,0.00,,,-99.99,WeatherLink 5.5,2013-05-11 21:30:00,
2013-05-11 17:35:00,66.0,55.5,29.67,North,-999,0.0,0.0,69,0.00,,,-99.99,WeatherLink 5.5,2013-05-11 21:35:00,
2013-05-11 17:40:00,66.0,55.9,29.67,North,-999,0.0,0.0,70,0.00,,,-99.99,WeatherLink 5.5,2013-05-11 21:40:00,
2013-05-11 17:45:00,66.0,55.9,29.67,North,-999,0.0,0.0,70,0.00,,,-99.99,WeatherLink 5.5,2013-05-11 21:45:00,
2013-05-11 17:50:00,65.7,55.6,29.66,North,-999,0.0,0.0,70,0.00,,,-99.99,WeatherLink 5.5,2013-05-11 21:50:00,
2013-05-11 17:55:00,65.5,55.8,29.66,North,-999,0.0,0.0,71,0.00,,,-99.99,WeatherLink 5.5,2013-05-11 21:55:00,
2013-05-11 18:00:00,65.5,55.8,29.66,North,-999,0.0,0.0,71,0.00,,,-99.99,WeatherLink 5.5,2013-05-11 22:00:00,
2013-05-11 18:05:00,65.0,56.5,29.67,North,-999,0.0,0.0,74,0.00,,,-99.99,WeatherLink 5.5,2013-05-11 22:05:00,
2013-05-11 18:10:00,64.9,56.8,29.67,North,-999,0.0,0.0,75,0.01,,,-99.99,WeatherLink 5.5,2013-05-11 22:10:00,
2013-05-11 18:15:00,64.9,56.8,29.67,North,-999,0.0,0.0,75,0.01,,,-99.99,WeatherLink 5.5,2013-05-11 22:15:00,
2013-05-11 18:20:00,64.2,56.8,29.69,North,-999,0.0,0.0,77,0.01,,,-99.99,WeatherLink 5.5,2013-05-11 22:20:00,
2013-05-11 18:25:00,64.0,57.0,29.69,North,-999,0.0,0.0,78,0.02,,,-99.99,WeatherLink 5.5,2013-05-11 22:25:00,
2013-05-11 18:30:00,64.0,57.0,29.69,North,-999,0.0,0.0,78,0.02,,,-99.99,WeatherLink 5.5,2013-05-11 22:30:00,
2013-05-11 18:35:00,63.7,57.4,29.68,North,-999,0.0,0.0,80,0.03,,,-99.99,WeatherLink 5.5,2013-05-11 22:35:00,
2013-05-11 18:40:00,63.6,57.3,29.68,North,-999,0.0,0.0,80,0.05,,,-99.99,WeatherLink 5.5,2013-05-11 22:40:00,
2013-05-11 18:45:00,63.6,57.3,29.68,North,-999,0.0,0.0,80,0.05,,,-99.99,WeatherLink 5.5,2013-05-11 22:45:00,
2013-05-11 18:50:00,63.2,57.3,29.69,North,-999,0.0,0.0,81,0.06,,,-99.99,WeatherLink 5.5,2013-05-11 22:50:00,
2013-05-11 18:55:00,63.2,57.6,29.69,North,-999,0.0,0.0,82,0.06,,,-99.99,WeatherLink 5.5,2013-05-11 22:55:00,
2013-05-11 19:00:00,63.2,57.6,29.69,North,-999,0.0,0.0,82,0.06,,,-99.99,WeatherLink 5.5,2013-05-11 23:00:00,
2013-05-11 19:05:00,63.1,57.5,29.68,North,-999,0.0,0.0,82,0.06,,,-99.99,WeatherLink 5.5,2013-05-11 23:05:00,
2013-05-11 19:10:00,63.1,57.5,29.68,North,-999,0.0,0.0,82,0.05,,,-99.99,WeatherLink 5.5,2013-05-11 23:10:00,
2013-05-11 19:15:00,63.1,57.5,29.68,North,-999,0.0,0.0,82,0.05,,,-99.99,WeatherLink 5.5,2013-05-11 23:15:00,
2013-05-11 19:20:00,62.9,57.7,29.67,North,-999,0.0,0.0,83,0.05,,,-99.99,WeatherLink 5.5,2013-05-11 23:20:00,
2013-05-11 19:25:00,62.9,57.7,29.67,North,-999,0.0,0.0,83,0.04,,,-99.99,WeatherLink 5.5,2013-05-11 23:25:00,
2013-05-11 19:30:00,62.9,57.7,29.67,North,-999,0.0,0.0,83,0.04,,,-99.99,WeatherLink 5.5,2013-05-11 23:30:00,
2013-05-11 19:35:00,62.9,57.7,29.67,North,-999,0.0,0.0,83,0.03,,,-99.99,WeatherLink 5.5,2013-05-11 23:35:00,
2013-05-11 19:40:00,62.9,57.7,29.67,North,-999,0.0,0.0,83,0.01,,,-99.99,WeatherLink 5.5,2013-05-11 23:40:00,
2013-05-11 19:45:00,62.9,57.7,29.67,North,-999,0.0,0.0,83,0.01,,,-99.99,WeatherLink 5.5,2013-05-11 23:45:00,
2013-05-11 19:50:00,62.8,57.6,29.68,North,-999,0.0,0.0,83,0.00,,,-99.99,WeatherLink 5.5,2013-05-11 23:50:00,
2013-05-11 19:55:00,62.8,57.9,29.68,North,-999,0.0,0.0,84,0.00,,,-99.99,WeatherLink 5.5,2013-05-11 23:55:00,
2013-05-11 20:00:00,62.8,57.9,29.68,North,-999,0.0,0.0,84,0.00,,,-99.99,WeatherLink 5.5,2013-05-12 00:00:00,
2013-05-11 20:05:00,62.8,57.6,29.68,North,-999,0.0,0.0,83,0.00,,,-99.99,WeatherLink 5.5,2013-05-12 00:05:00,
2013-05-11 20:10:00,62.6,57.7,29.68,North,-999,0.0,0.0,84,0.00,,,-99.99,WeatherLink 5.5,2013-05-12 00:10:00,
2013-05-11 20:15:00,62.6,57.7,29.68,North,-999,0.0,0.0,84,0.00,,,-99.99,WeatherLink 5.5,2013-05-12 00:15:00,
2013-05-11 20:20:00,62.6,57.4,29.67,North,-999,0.0,0.0,83,0.00,,,-99.99,WeatherLink 5.5,2013-05-12 00:20:00,
2013-05-11 20:25:00,62.6,57.4,29.67,North,-999,0.0,0.0,83,0.00,,,-99.99,WeatherLink 5.5,2013-05-12 00:25:00,
2013-05-11 20:30:00,62.6,57.4,29.67,North,-999,0.0,0.0,83,0.00,,,-99.99,WeatherLink 5.5,2013-05-12 00:30:00,
2013-05-11 20:35:00,62.4,57.2,29.66,North,-999,0.0,0.0,83,0.00,,,-99.99,WeatherLink 5.5,2013-05-12 00:35:00,
2013-05-11 20:40:00,62.4,57.2,29.66,North,-999,0.0,0.0,83,0.00,,,-99.99,WeatherLink 5.5,2013-05-12 00:40:00,
2013-05-11 20:45:00,62.4,57.2,29.66,North,-999,0.0,0.0,83,0.00,,,-99.99,WeatherLink 5.5,2013-05-12 00:45:00,
2013-05-11 20:50:00,62.4,57.5,29.67,North,-999,0.0,0.0,84,0.00,,,-99.99,WeatherLink 5.5,2013-05-12 00:50:00,
2013-05-11 20:55:00,62.4,57.5,29.67,North,-999,0.0,0.0,84,0.00,,,-99.99,WeatherLink 5.5,2013-05-12 00:55:00,
2013-05-11 21:00:00,62.4,57.5,29.67,North,-999,0.0,0.0,84,0.00,,,-99.99,WeatherLink 5.5,2013-05-12 01:00:00,
2013-05-11 21:05:00,62.3,57.4,29.67,North,-999,0.0,0.0,84,0.00,,,-99.99,WeatherLink 5.5,2013-05-12 01:05:00,
2013-05-11 21:10:00,62.3,57.4,29.67,North,-999,0.0,0.0,84,0.00,,,-99.99,WeatherLink 5.5,2013-05-12 01:10:00,
2013-05-11 21:15:00,62.3,57.4,29.67,North,-999,0.0,0.0,84,0.00,,,-99.99,WeatherLink 5.5,2013-05-12 01:15:00,
2013-05-11 21:20:00,62.0,57.1,29.66,North,-999,0.0,0.0,84,0.00,,,-99.99,WeatherLink 5.5,2013-05-12 01:20:00,
2013-05-11 21:25:00,62.0,57.1,29.66,North,-999,0.0,0.0,84,0.00,,,-99.99,WeatherLink 5.5,2013-05-12 01:25:00,
2013-05-11 21:30:00,62.0,57.1,29.66,North,-999,0.0,0.0,84,0.00,,,-99.99,WeatherLink 5.5,2013-05-12 01:30:00,
2013-05-11 21:35:00,62.0,57.1,29.67,North,-999,0.0,0.0,84,0.01,,,-99.99,WeatherLink 5.5,2013-05-12 01:35:00,
2013-05-11 21:40:00,61.8,56.9,29.67,North,-999,0.0,0.0,84,0.01,,,-99.99,WeatherLink 5.5,2013-05-12 01:40:00,
2013-05-11 21:45:00,61.8,56.9,29.67,North,-999,0.0,0.0,84,0.01,,,-99.99,WeatherLink 5.5,2013-05-12 01:45:00,
2013-05-11 21:50:00,61.7,56.8,29.66,North,-999,0.0,0.0,84,0.01,,,-99.99,WeatherLink 5.5,2013-05-12 01:50:00,
2013-05-11 21:55:00,61.7,56.8,29.66,North,-999,0.0,0.0,84,0.01,,,-99.99,WeatherLink 5.5,2013-05-12 01:55:00,
2013-05-11 22:00:00,61.7,56.8,29.66,North,-999,0.0,0.0,84,0.01,,,-99.99,WeatherLink 5.5,2013-05-12 02:00:00,
2013-05-11 22:05:00,61.5,56.6,29.66,North,-999,0.0,0.0,84,0.01,,,-99.99,WeatherLink 5.5,2013-05-12 02:05:00,
2013-05-11 22:10:00,61.5,56.6,29.66,North,-999,0.0,0.0,84,0.01,,,-99.99,WeatherLink 5.5,2013-05-12 02:10:00,
2013-05-11 22:15:00,61.5,56.6,29.66,North,-999,0.0,0.0,84,0.01,,,-99.99,WeatherLink 5.5,2013-05-12 02:15:00,
2013-05-11 22:20:00,61.3,56.4,29.66,North,-999,0.0,0.0,84,0.01,,,-99.99,WeatherLink 5.5,2013-05-12 02:20:00,
2013-05-11 22:25:00,61.3,56.4,29.66,North,-999,0.0,0.0,84,0.01,,,-99.99,WeatherLink 5.5,2013-05-12 02:25:00,
2013-05-11 22:30:00,61.3,56.4,29.66,North,-999,0.0,0.0,84,0.01,,,-99.99,WeatherLink 5.5,2013-05-12 02:30:00,
2013-05-11 22:35:00,61.3,56.4,29.66,North,-999,0.0,0.0,84,0.00,,,-99.99,WeatherLink 5.5,2013-05-12 02:35:00,
2013-05-11 22:40:00,61.2,56.3,29.66,North,-999,0.0,0.0,84,0.00,,,-99.99,WeatherLink 5.5,2013-05-12 02:40:00,
2013-05-11 22:45:00,61.2,56.3,29.66,North,-999,0.0,0.0,84,0.00,,,-99.99,WeatherLink 5.5,2013-05-12 02:45:00,
2013-05-11 22:50:00,61.2,56.3,29.66,North,-999,0.0,0.0,84,0.00,,,-99.99,WeatherLink 5.5,2013-05-12 02:50:00,
2013-05-11 22:55:00,61.2,56.7,29.66,North,-999,0.0,0.0,85,0.00,,,-99.99,WeatherLink 5.5,2013-05-12 02:55:00,
2013-05-11 23:00:00,61.2,56.7,29.66,North,-999,0.0,0.0,85,0.00,,,-99.99,WeatherLink 5.5,2013-05-12 03:00:00,
2013-05-11 23:05:00,61.2,56.7,29.65,North,-999,0.0,0.0,85,0.00,,,-99.99,WeatherLink 5.5,2013-05-12 03:05:00,
2013-05-11 23:10:00,61.2,56.7,29.65,North,-999,0.0,0.0,85,0.00,,,-99.99,WeatherLink 5.5,2013-05-12 03:10:00,
2013-05-11 23:15:00,61.2,56.7,29.65,North,-999,0.0,0.0,85,0.00,,,-99.99,WeatherLink 5.5,2013-05-12 03:15:00,
2013-05-11 23:20:00,61.2,56.7,29.65,North,-999,0.0,0.0,85,0.00,,,-99.99,WeatherLink 5.5,2013-05-12 03:20:00,
2013-05-11 23:25:00,61.2,56.7,29.65,North,-999,0.0,0.0,85,0.00,,,-99.99,WeatherLink 5.5,2013-05-12 03:25:00,
2013-05-11 23:30:00,61.2,56.7,29.65,North,-999,0.0,0.0,85,0.00,,,-99.99,WeatherLink 5.5,2013-05-12 03:30:00,
2013-05-11 23:35:00,61.3,56.8,29.66,North,-999,0.0,0.0,85,0.00,,,-99.99,WeatherLink 5.5,2013-05-12 03:35:00,
2013-05-11 23:40:00,61.3,56.8,29.66,North,-999,0.0,0.0,85,0.00,,,-99.99,WeatherLink 5.5,2013-05-12 03:40:00,
2013-05-11 23:45:00,61.3,56.8,29.66,North,-999,0.0,0.0,85,0.00,,,-99.99,WeatherLink 5.5,2013-05-12 03:45:00,
2013-05-11 23:50:00,61.3,56.8,29.65,North,-999,0.0,0.0,85,0.00,,,-99.99,WeatherLink 5.5,2013-05-12 03:50:00,
2013-05-11 23:55:00,61.3,56.8,29.65,North,-999,0.0,0.0,85,0.00,,,-99.99,WeatherLink 5.5,2013-05-12 03:55:00,